sensor_id;sensor_type;location;lat;lon;timestamp;temperature;humidity
13694;DHT22;6919;52.344;14.518;2023-07-31T00:01:41;15.80;99.90
13694;DHT22;6919;52.344;14.518;2023-07-31T00:04:09;15.80;99.90
13694;DHT22;6919;52.344;14.518;2023-07-31T00:06:39;15.80;99.90
13694;DHT22;6919;52.344;14.518;2023-07-31T00:09:08;15.80;99.90
13694;DHT22;6919;52.344;14.518;2023-07-31T00:11:36;15.80;99.90
13694;DHT22;6919;52.344;14.518;2023-07-31T00:14:05;15.80;99.90
13694;DHT22;6919;52.344;14.518;2023-07-31T00:16:33;15.80;99.90
13694;DHT22;6919;52.344;14.518;2023-07-31T00:19:01;15.80;99.90
13694;DHT22;6919;52.344;14.518;2023-07-31T00:21:29;15.80;99.90
13694;DHT22;6919;52.344;14.518;2023-07-31T00:23:59;15.80;99.90
13694;DHT22;6919;52.344;14.518;2023-07-31T00:26:27;15.70;99.90
13694;DHT22;6919;52.344;14.518;2023-07-31T00:28:56;15.60;99.90
13694;DHT22;6919;52.344;14.518;2023-07-31T00:31:24;15.60;99.90
13694;DHT22;6919;52.344;14.518;2023-07-31T00:33:52;15.60;99.90
13694;DHT22;6919;52.344;14.518;2023-07-31T00:36:20;15.60;99.90
13694;DHT22;6919;52.344;14.518;2023-07-31T00:38:48;15.70;99.90
13694;DHT22;6919;52.344;14.518;2023-07-31T00:41:18;15.70;99.90
13694;DHT22;6919;52.344;14.518;2023-07-31T00:43:46;15.70;99.90
13694;DHT22;6919;52.344;14.518;2023-07-31T00:46:15;15.80;99.90
13694;DHT22;6919;52.344;14.518;2023-07-31T00:48:43;15.90;99.90
13694;DHT22;6919;52.344;14.518;2023-07-31T00:51:11;15.90;99.90
13694;DHT22;6919;52.344;14.518;2023-07-31T00:53:40;15.80;99.90
13694;DHT22;6919;52.344;14.518;2023-07-31T00:56:11;15.80;99.90
13694;DHT22;6919;52.344;14.518;2023-07-31T00:58:41;15.80;99.90
13694;DHT22;6919;52.344;14.518;2023-07-31T01:01:09;15.80;99.90
13694;DHT22;6919;52.344;14.518;2023-07-31T01:03:38;16.10;99.90
13694;DHT22;6919;52.344;14.518;2023-07-31T01:06:15;15.80;99.90
13694;DHT22;6919;52.344;14.518;2023-07-31T01:08:57;15.80;99.90
13694;DHT22;6919;52.344;14.518;2023-07-31T01:11:31;15.80;99.90
13694;DHT22;6919;52.344;14.518;2023-07-31T01:14:03;15.80;99.90
13694;DHT22;6919;52.344;14.518;2023-07-31T01:16:32;15.70;99.90
13694;DHT22;6919;52.344;14.518;2023-07-31T01:19:00;15.60;99.90
13694;DHT22;6919;52.344;14.518;2023-07-31T01:21:46;15.80;99.90
13694;DHT22;6919;52.344;14.518;2023-07-31T01:24:30;15.70;99.90
13694;DHT22;6919;52.344;14.518;2023-07-31T01:27:15;15.60;99.90
13694;DHT22;6919;52.344;14.518;2023-07-31T01:29:52;15.60;99.90
13694;DHT22;6919;52.344;14.518;2023-07-31T01:32:25;15.70;99.90
13694;DHT22;6919;52.344;14.518;2023-07-31T01:34:58;15.70;99.90
13694;DHT22;6919;52.344;14.518;2023-07-31T01:37:28;15.50;99.90
13694;DHT22;6919;52.344;14.518;2023-07-31T01:39:57;15.60;99.90
13694;DHT22;6919;52.344;14.518;2023-07-31T01:42:26;15.50;99.90
13694;DHT22;6919;52.344;14.518;2023-07-31T01:44:55;15.50;99.90
13694;DHT22;6919;52.344;14.518;2023-07-31T01:47:23;15.60;99.90
13694;DHT22;6919;52.344;14.518;2023-07-31T01:49:51;15.60;99.90
13694;DHT22;6919;52.344;14.518;2023-07-31T01:52:19;15.70;99.90
13694;DHT22;6919;52.344;14.518;2023-07-31T01:54:47;15.60;99.90
13694;DHT22;6919;52.344;14.518;2023-07-31T01:57:16;15.60;99.90
13694;DHT22;6919;52.344;14.518;2023-07-31T01:59:45;15.60;99.90
13694;DHT22;6919;52.344;14.518;2023-07-31T02:02:14;15.60;99.90
13694;DHT22;6919;52.344;14.518;2023-07-31T02:04:42;15.60;99.90
13694;DHT22;6919;52.344;14.518;2023-07-31T02:07:10;15.60;99.90
13694;DHT22;6919;52.344;14.518;2023-07-31T02:09:38;15.60;99.90
13694;DHT22;6919;52.344;14.518;2023-07-31T02:12:08;15.50;99.90
13694;DHT22;6919;52.344;14.518;2023-07-31T02:14:36;15.60;99.90
13694;DHT22;6919;52.344;14.518;2023-07-31T02:17:06;15.60;99.90
13694;DHT22;6919;52.344;14.518;2023-07-31T02:19:34;15.80;99.90
13694;DHT22;6919;52.344;14.518;2023-07-31T02:22:03;15.70;99.90
13694;DHT22;6919;52.344;14.518;2023-07-31T02:24:32;15.80;99.90
13694;DHT22;6919;52.344;14.518;2023-07-31T02:27:00;15.90;99.90
13694;DHT22;6919;52.344;14.518;2023-07-31T02:29:28;15.90;99.90
13694;DHT22;6919;52.344;14.518;2023-07-31T02:31:56;15.80;99.90
13694;DHT22;6919;52.344;14.518;2023-07-31T02:34:26;15.90;99.90
13694;DHT22;6919;52.344;14.518;2023-07-31T02:36:54;15.80;99.90
13694;DHT22;6919;52.344;14.518;2023-07-31T02:39:22;15.80;99.90
13694;DHT22;6919;52.344;14.518;2023-07-31T02:41:50;15.80;99.90
13694;DHT22;6919;52.344;14.518;2023-07-31T02:44:18;15.80;99.90
13694;DHT22;6919;52.344;14.518;2023-07-31T02:46:47;15.80;99.90
13694;DHT22;6919;52.344;14.518;2023-07-31T02:49:16;15.90;99.90
13694;DHT22;6919;52.344;14.518;2023-07-31T02:51:45;15.80;99.90
13694;DHT22;6919;52.344;14.518;2023-07-31T02:54:14;15.90;99.90
13694;DHT22;6919;52.344;14.518;2023-07-31T02:56:42;15.90;99.90
13694;DHT22;6919;52.344;14.518;2023-07-31T02:59:10;15.80;99.90
13694;DHT22;6919;52.344;14.518;2023-07-31T03:01:38;15.90;99.90
13694;DHT22;6919;52.344;14.518;2023-07-31T03:04:07;16.00;99.90
13694;DHT22;6919;52.344;14.518;2023-07-31T03:06:35;15.90;99.90
13694;DHT22;6919;52.344;14.518;2023-07-31T03:09:05;16.00;99.90
13694;DHT22;6919;52.344;14.518;2023-07-31T03:11:33;16.10;99.90
13694;DHT22;6919;52.344;14.518;2023-07-31T03:14:01;16.00;99.90
13694;DHT22;6919;52.344;14.518;2023-07-31T03:16:30;16.10;99.90
13694;DHT22;6919;52.344;14.518;2023-07-31T03:18:58;16.00;99.90
13694;DHT22;6919;52.344;14.518;2023-07-31T03:21:26;16.10;99.90
13694;DHT22;6919;52.344;14.518;2023-07-31T03:23:54;16.10;99.90
13694;DHT22;6919;52.344;14.518;2023-07-31T03:26:24;16.10;99.90
13694;DHT22;6919;52.344;14.518;2023-07-31T03:28:52;16.00;99.90
13694;DHT22;6919;52.344;14.518;2023-07-31T03:31:20;16.10;99.90
13694;DHT22;6919;52.344;14.518;2023-07-31T03:33:48;16.00;99.90
13694;DHT22;6919;52.344;14.518;2023-07-31T03:36:16;16.10;99.90
13694;DHT22;6919;52.344;14.518;2023-07-31T03:38:46;16.10;99.90
13694;DHT22;6919;52.344;14.518;2023-07-31T03:41:14;16.20;99.90
13694;DHT22;6919;52.344;14.518;2023-07-31T03:43:49;16.10;99.90
13694;DHT22;6919;52.344;14.518;2023-07-31T03:46:19;16.10;99.90
13694;DHT22;6919;52.344;14.518;2023-07-31T03:48:48;16.10;99.90
13694;DHT22;6919;52.344;14.518;2023-07-31T03:51:16;16.10;99.90
13694;DHT22;6919;52.344;14.518;2023-07-31T03:53:45;16.30;99.90
13694;DHT22;6919;52.344;14.518;2023-07-31T03:56:13;16.30;99.90
13694;DHT22;6919;52.344;14.518;2023-07-31T03:58:41;16.30;99.90
13694;DHT22;6919;52.344;14.518;2023-07-31T04:01:11;16.40;99.90
13694;DHT22;6919;52.344;14.518;2023-07-31T04:03:39;16.30;99.90
13694;DHT22;6919;52.344;14.518;2023-07-31T04:06:07;16.20;99.90
13694;DHT22;6919;52.344;14.518;2023-07-31T04:08:36;16.20;99.90
13694;DHT22;6919;52.344;14.518;2023-07-31T04:11:04;16.20;99.90
13694;DHT22;6919;52.344;14.518;2023-07-31T04:13:32;16.10;99.90
13694;DHT22;6919;52.344;14.518;2023-07-31T04:16:02;16.10;99.90
13694;DHT22;6919;52.344;14.518;2023-07-31T04:18:31;16.10;99.90
13694;DHT22;6919;52.344;14.518;2023-07-31T04:20:59;16.10;99.90
13694;DHT22;6919;52.344;14.518;2023-07-31T04:23:28;16.10;99.90
13694;DHT22;6919;52.344;14.518;2023-07-31T04:25:56;16.00;99.90
13694;DHT22;6919;52.344;14.518;2023-07-31T04:28:24;16.10;99.90
13694;DHT22;6919;52.344;14.518;2023-07-31T04:30:53;16.10;99.90
13694;DHT22;6919;52.344;14.518;2023-07-31T04:33:23;16.00;99.90
13694;DHT22;6919;52.344;14.518;2023-07-31T04:35:51;16.00;99.90
13694;DHT22;6919;52.344;14.518;2023-07-31T04:38:21;16.10;99.90
13694;DHT22;6919;52.344;14.518;2023-07-31T04:40:49;16.10;99.90
13694;DHT22;6919;52.344;14.518;2023-07-31T04:43:18;16.10;99.90
13694;DHT22;6919;52.344;14.518;2023-07-31T04:45:46;16.20;99.90
13694;DHT22;6919;52.344;14.518;2023-07-31T04:48:16;16.20;99.90
13694;DHT22;6919;52.344;14.518;2023-07-31T04:50:46;16.20;99.90
13694;DHT22;6919;52.344;14.518;2023-07-31T04:53:14;16.20;99.90
13694;DHT22;6919;52.344;14.518;2023-07-31T04:55:42;16.20;99.90
13694;DHT22;6919;52.344;14.518;2023-07-31T04:58:11;16.30;99.90
13694;DHT22;6919;52.344;14.518;2023-07-31T05:00:39;16.20;99.90
13694;DHT22;6919;52.344;14.518;2023-07-31T05:03:07;16.30;99.90
13694;DHT22;6919;52.344;14.518;2023-07-31T05:05:37;16.30;99.90
13694;DHT22;6919;52.344;14.518;2023-07-31T05:08:07;16.30;99.90
13694;DHT22;6919;52.344;14.518;2023-07-31T05:10:35;16.30;99.90
13694;DHT22;6919;52.344;14.518;2023-07-31T05:13:03;16.20;99.90
13694;DHT22;6919;52.344;14.518;2023-07-31T05:15:32;16.30;99.90
13694;DHT22;6919;52.344;14.518;2023-07-31T05:18:00;16.30;99.90
13694;DHT22;6919;52.344;14.518;2023-07-31T05:20:28;16.50;99.90
13694;DHT22;6919;52.344;14.518;2023-07-31T05:22:56;16.50;99.90
13694;DHT22;6919;52.344;14.518;2023-07-31T05:25:26;16.50;99.90
13694;DHT22;6919;52.344;14.518;2023-07-31T05:27:54;16.50;99.90
13694;DHT22;6919;52.344;14.518;2023-07-31T05:30:22;16.50;99.90
13694;DHT22;6919;52.344;14.518;2023-07-31T05:32:51;16.60;99.90
13694;DHT22;6919;52.344;14.518;2023-07-31T05:35:19;16.70;99.90
13694;DHT22;6919;52.344;14.518;2023-07-31T05:37:47;16.70;99.90
13694;DHT22;6919;52.344;14.518;2023-07-31T05:40:15;16.60;99.90
13694;DHT22;6919;52.344;14.518;2023-07-31T05:42:45;16.50;99.90
13694;DHT22;6919;52.344;14.518;2023-07-31T05:45:14;16.50;99.90
13694;DHT22;6919;52.344;14.518;2023-07-31T05:47:42;16.40;99.90
13694;DHT22;6919;52.344;14.518;2023-07-31T05:50:10;16.40;99.90
13694;DHT22;6919;52.344;14.518;2023-07-31T05:52:39;16.40;99.90
13694;DHT22;6919;52.344;14.518;2023-07-31T05:55:08;16.30;99.90
13694;DHT22;6919;52.344;14.518;2023-07-31T05:57:36;16.30;99.90
13694;DHT22;6919;52.344;14.518;2023-07-31T06:00:07;16.20;99.90
13694;DHT22;6919;52.344;14.518;2023-07-31T06:02:36;16.20;99.90
13694;DHT22;6919;52.344;14.518;2023-07-31T06:05:05;16.20;99.90
13694;DHT22;6919;52.344;14.518;2023-07-31T06:07:34;16.10;99.90
13694;DHT22;6919;52.344;14.518;2023-07-31T06:10:03;16.10;99.90
13694;DHT22;6919;52.344;14.518;2023-07-31T06:12:32;16.10;99.90
13694;DHT22;6919;52.344;14.518;2023-07-31T06:15:02;16.00;99.90
13694;DHT22;6919;52.344;14.518;2023-07-31T06:17:32;16.10;99.90
13694;DHT22;6919;52.344;14.518;2023-07-31T06:20:01;16.20;99.90
13694;DHT22;6919;52.344;14.518;2023-07-31T06:22:31;16.10;99.90
13694;DHT22;6919;52.344;14.518;2023-07-31T06:25:00;16.10;99.90
13694;DHT22;6919;52.344;14.518;2023-07-31T06:27:28;16.10;99.90
13694;DHT22;6919;52.344;14.518;2023-07-31T06:29:57;16.10;99.90
13694;DHT22;6919;52.344;14.518;2023-07-31T06:32:25;16.20;99.90
13694;DHT22;6919;52.344;14.518;2023-07-31T06:34:55;16.40;99.90
13694;DHT22;6919;52.344;14.518;2023-07-31T06:37:24;16.50;99.90
13694;DHT22;6919;52.344;14.518;2023-07-31T06:39:54;16.50;99.90
13694;DHT22;6919;52.344;14.518;2023-07-31T06:42:23;16.40;99.90
13694;DHT22;6919;52.344;14.518;2023-07-31T06:44:51;16.30;99.90
13694;DHT22;6919;52.344;14.518;2023-07-31T06:47:19;16.30;99.90
13694;DHT22;6919;52.344;14.518;2023-07-31T06:49:47;16.20;99.90
13694;DHT22;6919;52.344;14.518;2023-07-31T06:52:17;16.30;99.90
13694;DHT22;6919;52.344;14.518;2023-07-31T06:55:01;16.20;99.90
13694;DHT22;6919;52.344;14.518;2023-07-31T06:57:30;16.20;99.90
13694;DHT22;6919;52.344;14.518;2023-07-31T06:59:59;16.20;99.90
13694;DHT22;6919;52.344;14.518;2023-07-31T07:02:27;16.20;99.90
13694;DHT22;6919;52.344;14.518;2023-07-31T07:04:56;16.30;99.90
13694;DHT22;6919;52.344;14.518;2023-07-31T07:07:25;16.40;99.90
13694;DHT22;6919;52.344;14.518;2023-07-31T07:09:54;16.60;99.90
13694;DHT22;6919;52.344;14.518;2023-07-31T07:12:22;16.70;99.90
13694;DHT22;6919;52.344;14.518;2023-07-31T07:14:51;16.70;99.90
13694;DHT22;6919;52.344;14.518;2023-07-31T07:17:19;16.90;99.90
13694;DHT22;6919;52.344;14.518;2023-07-31T07:19:48;17.00;99.90
13694;DHT22;6919;52.344;14.518;2023-07-31T07:22:17;17.10;99.90
13694;DHT22;6919;52.344;14.518;2023-07-31T07:24:46;17.10;99.90
13694;DHT22;6919;52.344;14.518;2023-07-31T07:27:15;17.40;99.90
13694;DHT22;6919;52.344;14.518;2023-07-31T07:29:43;17.40;99.90
13694;DHT22;6919;52.344;14.518;2023-07-31T07:32:11;17.40;99.90
13694;DHT22;6919;52.344;14.518;2023-07-31T07:34:40;17.30;99.90
13694;DHT22;6919;52.344;14.518;2023-07-31T07:37:08;17.20;99.90
13694;DHT22;6919;52.344;14.518;2023-07-31T07:39:36;17.20;99.90
13694;DHT22;6919;52.344;14.518;2023-07-31T07:42:06;17.20;99.90
13694;DHT22;6919;52.344;14.518;2023-07-31T07:44:34;17.20;99.90
13694;DHT22;6919;52.344;14.518;2023-07-31T07:47:03;17.30;99.90
13694;DHT22;6919;52.344;14.518;2023-07-31T07:49:33;17.30;99.90
13694;DHT22;6919;52.344;14.518;2023-07-31T07:52:03;17.40;99.90
13694;DHT22;6919;52.344;14.518;2023-07-31T07:54:32;17.40;99.90
13694;DHT22;6919;52.344;14.518;2023-07-31T07:57:00;17.40;99.90
13694;DHT22;6919;52.344;14.518;2023-07-31T07:59:30;17.60;99.90
13694;DHT22;6919;52.344;14.518;2023-07-31T08:01:59;17.60;99.90
13694;DHT22;6919;52.344;14.518;2023-07-31T08:04:27;17.70;99.90
13694;DHT22;6919;52.344;14.518;2023-07-31T08:06:55;17.60;99.90
13694;DHT22;6919;52.344;14.518;2023-07-31T08:09:23;17.80;99.90
13694;DHT22;6919;52.344;14.518;2023-07-31T08:11:52;17.70;99.90
13694;DHT22;6919;52.344;14.518;2023-07-31T08:14:21;17.60;99.90
13694;DHT22;6919;52.344;14.518;2023-07-31T08:16:51;17.40;99.90
13694;DHT22;6919;52.344;14.518;2023-07-31T08:19:19;17.20;99.90
13694;DHT22;6919;52.344;14.518;2023-07-31T08:21:48;17.10;99.90
13694;DHT22;6919;52.344;14.518;2023-07-31T08:24:16;17.10;99.90
13694;DHT22;6919;52.344;14.518;2023-07-31T08:26:44;16.90;99.90
13694;DHT22;6919;52.344;14.518;2023-07-31T08:29:13;16.80;99.90
13694;DHT22;6919;52.344;14.518;2023-07-31T08:31:41;16.70;99.90
13694;DHT22;6919;52.344;14.518;2023-07-31T08:34:11;16.80;99.90
13694;DHT22;6919;52.344;14.518;2023-07-31T08:36:39;17.00;99.90
13694;DHT22;6919;52.344;14.518;2023-07-31T08:39:08;16.80;99.90
13694;DHT22;6919;52.344;14.518;2023-07-31T08:41:37;17.00;99.90
13694;DHT22;6919;52.344;14.518;2023-07-31T08:44:07;17.00;99.90
13694;DHT22;6919;52.344;14.518;2023-07-31T08:46:36;17.00;99.90
13694;DHT22;6919;52.344;14.518;2023-07-31T08:49:07;17.10;99.90
13694;DHT22;6919;52.344;14.518;2023-07-31T08:51:36;17.10;99.90
13694;DHT22;6919;52.344;14.518;2023-07-31T08:54:05;17.20;99.90
13694;DHT22;6919;52.344;14.518;2023-07-31T08:56:33;17.20;99.90
13694;DHT22;6919;52.344;14.518;2023-07-31T08:59:05;17.20;99.90
13694;DHT22;6919;52.344;14.518;2023-07-31T09:01:37;17.20;99.90
13694;DHT22;6919;52.344;14.518;2023-07-31T09:04:13;17.10;99.90
13694;DHT22;6919;52.344;14.518;2023-07-31T09:06:46;17.10;99.90
13694;DHT22;6919;52.344;14.518;2023-07-31T09:09:16;17.20;99.90
13694;DHT22;6919;52.344;14.518;2023-07-31T09:11:44;17.20;99.90
13694;DHT22;6919;52.344;14.518;2023-07-31T09:14:13;17.20;99.90
13694;DHT22;6919;52.344;14.518;2023-07-31T09:16:53;17.10;99.90
13694;DHT22;6919;52.344;14.518;2023-07-31T09:19:26;17.10;99.90
13694;DHT22;6919;52.344;14.518;2023-07-31T09:21:56;17.10;99.90
13694;DHT22;6919;52.344;14.518;2023-07-31T09:24:25;17.00;99.90
13694;DHT22;6919;52.344;14.518;2023-07-31T09:26:55;17.00;99.90
13694;DHT22;6919;52.344;14.518;2023-07-31T09:29:26;17.00;99.90
13694;DHT22;6919;52.344;14.518;2023-07-31T09:31:55;17.10;99.90
13694;DHT22;6919;52.344;14.518;2023-07-31T09:34:29;17.20;99.90
13694;DHT22;6919;52.344;14.518;2023-07-31T09:37:06;17.10;99.90
13694;DHT22;6919;52.344;14.518;2023-07-31T09:39:45;17.20;99.90
13694;DHT22;6919;52.344;14.518;2023-07-31T09:42:24;17.20;99.90
13694;DHT22;6919;52.344;14.518;2023-07-31T09:45:07;17.40;99.90
13694;DHT22;6919;52.344;14.518;2023-07-31T09:47:36;17.40;99.90
13694;DHT22;6919;52.344;14.518;2023-07-31T09:50:07;17.40;99.90
13694;DHT22;6919;52.344;14.518;2023-07-31T09:52:40;17.50;99.90
13694;DHT22;6919;52.344;14.518;2023-07-31T09:55:08;17.60;99.90
13694;DHT22;6919;52.344;14.518;2023-07-31T09:57:38;17.80;99.90
13694;DHT22;6919;52.344;14.518;2023-07-31T10:00:09;18.30;99.90
13694;DHT22;6919;52.344;14.518;2023-07-31T10:02:38;18.60;99.90
13694;DHT22;6919;52.344;14.518;2023-07-31T10:05:08;18.80;99.90
13694;DHT22;6919;52.344;14.518;2023-07-31T10:07:37;18.80;99.90
13694;DHT22;6919;52.344;14.518;2023-07-31T10:10:10;18.60;99.90
13694;DHT22;6919;52.344;14.518;2023-07-31T10:12:39;18.50;99.90
13694;DHT22;6919;52.344;14.518;2023-07-31T10:15:08;18.10;99.90
13694;DHT22;6919;52.344;14.518;2023-07-31T10:17:38;17.80;99.90
13694;DHT22;6919;52.344;14.518;2023-07-31T10:20:07;17.80;99.90
13694;DHT22;6919;52.344;14.518;2023-07-31T10:22:36;18.00;99.90
13694;DHT22;6919;52.344;14.518;2023-07-31T10:25:09;18.20;99.90
13694;DHT22;6919;52.344;14.518;2023-07-31T10:27:39;18.40;99.90
13694;DHT22;6919;52.344;14.518;2023-07-31T10:30:09;18.50;99.90
13694;DHT22;6919;52.344;14.518;2023-07-31T10:32:45;18.70;99.90
13694;DHT22;6919;52.344;14.518;2023-07-31T10:35:16;18.80;99.90
13694;DHT22;6919;52.344;14.518;2023-07-31T10:37:45;19.00;99.90
13694;DHT22;6919;52.344;14.518;2023-07-31T10:40:17;19.50;99.90
13694;DHT22;6919;52.344;14.518;2023-07-31T10:42:48;19.30;99.90
13694;DHT22;6919;52.344;14.518;2023-07-31T10:45:24;19.20;99.90
13694;DHT22;6919;52.344;14.518;2023-07-31T10:47:58;19.50;99.90
13694;DHT22;6919;52.344;14.518;2023-07-31T10:50:29;19.60;99.90
13694;DHT22;6919;52.344;14.518;2023-07-31T10:53:00;19.80;99.90
13694;DHT22;6919;52.344;14.518;2023-07-31T10:55:31;19.70;99.90
13694;DHT22;6919;52.344;14.518;2023-07-31T10:58:09;19.70;99.90
13694;DHT22;6919;52.344;14.518;2023-07-31T11:00:39;19.50;99.90
13694;DHT22;6919;52.344;14.518;2023-07-31T11:03:10;19.50;99.90
13694;DHT22;6919;52.344;14.518;2023-07-31T11:05:49;19.50;99.90
13694;DHT22;6919;52.344;14.518;2023-07-31T11:08:21;19.60;99.90
13694;DHT22;6919;52.344;14.518;2023-07-31T11:11:06;19.40;99.90
13694;DHT22;6919;52.344;14.518;2023-07-31T11:13:41;19.50;99.90
13694;DHT22;6919;52.344;14.518;2023-07-31T11:16:12;19.80;99.90
13694;DHT22;6919;52.344;14.518;2023-07-31T11:18:42;19.80;99.90
13694;DHT22;6919;52.344;14.518;2023-07-31T11:21:12;19.70;99.90
13694;DHT22;6919;52.344;14.518;2023-07-31T11:23:41;19.40;99.90
13694;DHT22;6919;52.344;14.518;2023-07-31T11:26:15;19.10;99.90
13694;DHT22;6919;52.344;14.518;2023-07-31T11:28:47;19.00;99.90
13694;DHT22;6919;52.344;14.518;2023-07-31T11:31:16;19.00;99.90
13694;DHT22;6919;52.344;14.518;2023-07-31T11:33:45;19.10;99.90
13694;DHT22;6919;52.344;14.518;2023-07-31T11:36:14;19.20;99.90
13694;DHT22;6919;52.344;14.518;2023-07-31T11:38:44;19.10;99.90
13694;DHT22;6919;52.344;14.518;2023-07-31T11:41:15;19.00;99.90
13694;DHT22;6919;52.344;14.518;2023-07-31T11:43:45;18.90;99.90
13694;DHT22;6919;52.344;14.518;2023-07-31T11:46:14;18.90;99.90
13694;DHT22;6919;52.344;14.518;2023-07-31T11:48:43;19.10;99.90
13694;DHT22;6919;52.344;14.518;2023-07-31T11:51:13;19.50;99.90
13694;DHT22;6919;52.344;14.518;2023-07-31T11:53:44;20.10;99.90
13694;DHT22;6919;52.344;14.518;2023-07-31T11:56:18;20.30;99.90
13694;DHT22;6919;52.344;14.518;2023-07-31T11:58:52;20.70;99.90
13694;DHT22;6919;52.344;14.518;2023-07-31T12:01:24;20.90;99.90
13694;DHT22;6919;52.344;14.518;2023-07-31T12:03:55;20.80;99.90
13694;DHT22;6919;52.344;14.518;2023-07-31T12:06:32;21.00;99.90
13694;DHT22;6919;52.344;14.518;2023-07-31T12:09:03;21.10;99.90
13694;DHT22;6919;52.344;14.518;2023-07-31T12:11:42;21.20;99.90
13694;DHT22;6919;52.344;14.518;2023-07-31T12:14:20;21.70;99.90
13694;DHT22;6919;52.344;14.518;2023-07-31T12:16:53;22.00;99.90
13694;DHT22;6919;52.344;14.518;2023-07-31T12:19:24;22.00;99.90
13694;DHT22;6919;52.344;14.518;2023-07-31T12:21:55;21.90;99.90
13694;DHT22;6919;52.344;14.518;2023-07-31T12:24:23;21.90;99.90
13694;DHT22;6919;52.344;14.518;2023-07-31T12:26:54;21.90;99.90
13694;DHT22;6919;52.344;14.518;2023-07-31T12:29:23;21.70;99.90
13694;DHT22;6919;52.344;14.518;2023-07-31T12:31:51;21.40;99.90
13694;DHT22;6919;52.344;14.518;2023-07-31T12:34:20;21.20;99.90
13694;DHT22;6919;52.344;14.518;2023-07-31T12:36:49;21.00;99.90
13694;DHT22;6919;52.344;14.518;2023-07-31T12:39:17;21.00;99.90
13694;DHT22;6919;52.344;14.518;2023-07-31T12:41:46;21.20;99.90
13694;DHT22;6919;52.344;14.518;2023-07-31T12:44:15;20.90;99.90
13694;DHT22;6919;52.344;14.518;2023-07-31T12:46:44;21.00;99.90
13694;DHT22;6919;52.344;14.518;2023-07-31T12:49:12;21.20;99.90
13694;DHT22;6919;52.344;14.518;2023-07-31T12:51:41;21.20;99.90
13694;DHT22;6919;52.344;14.518;2023-07-31T12:54:09;21.40;99.90
13694;DHT22;6919;52.344;14.518;2023-07-31T12:56:38;21.30;99.90
13694;DHT22;6919;52.344;14.518;2023-07-31T12:59:08;21.40;99.90
13694;DHT22;6919;52.344;14.518;2023-07-31T13:01:38;21.30;99.90
13694;DHT22;6919;52.344;14.518;2023-07-31T13:04:07;20.90;99.90
13694;DHT22;6919;52.344;14.518;2023-07-31T13:06:35;20.60;99.90
13694;DHT22;6919;52.344;14.518;2023-07-31T13:09:04;20.60;99.90
13694;DHT22;6919;52.344;14.518;2023-07-31T13:11:34;20.50;99.90
13694;DHT22;6919;52.344;14.518;2023-07-31T13:14:02;20.60;99.90
13694;DHT22;6919;52.344;14.518;2023-07-31T13:16:30;20.40;99.90
13694;DHT22;6919;52.344;14.518;2023-07-31T13:19:00;19.90;99.90
13694;DHT22;6919;52.344;14.518;2023-07-31T13:21:28;19.80;99.90
13694;DHT22;6919;52.344;14.518;2023-07-31T13:23:57;19.90;99.90
13694;DHT22;6919;52.344;14.518;2023-07-31T13:26:27;20.10;99.90
13694;DHT22;6919;52.344;14.518;2023-07-31T13:28:55;20.30;99.90
13694;DHT22;6919;52.344;14.518;2023-07-31T13:31:24;20.50;99.90
13694;DHT22;6919;52.344;14.518;2023-07-31T13:33:53;20.70;99.90
13694;DHT22;6919;52.344;14.518;2023-07-31T13:36:23;20.90;99.90
13694;DHT22;6919;52.344;14.518;2023-07-31T13:38:52;21.40;99.90
13694;DHT22;6919;52.344;14.518;2023-07-31T13:41:20;21.80;99.90
13694;DHT22;6919;52.344;14.518;2023-07-31T13:43:49;21.80;99.90
13694;DHT22;6919;52.344;14.518;2023-07-31T13:46:17;21.60;99.90
13694;DHT22;6919;52.344;14.518;2023-07-31T13:48:46;21.60;99.90
13694;DHT22;6919;52.344;14.518;2023-07-31T13:51:14;22.10;99.90
13694;DHT22;6919;52.344;14.518;2023-07-31T13:53:44;22.40;99.90
13694;DHT22;6919;52.344;14.518;2023-07-31T13:56:12;22.30;99.90
13694;DHT22;6919;52.344;14.518;2023-07-31T13:58:41;21.90;99.90
13694;DHT22;6919;52.344;14.518;2023-07-31T14:01:10;22.00;99.90
13694;DHT22;6919;52.344;14.518;2023-07-31T14:03:38;22.50;99.90
13694;DHT22;6919;52.344;14.518;2023-07-31T14:06:09;22.50;99.90
13694;DHT22;6919;52.344;14.518;2023-07-31T14:08:38;22.60;99.90
13694;DHT22;6919;52.344;14.518;2023-07-31T14:11:08;22.20;99.90
13694;DHT22;6919;52.344;14.518;2023-07-31T14:13:36;22.20;99.90
13694;DHT22;6919;52.344;14.518;2023-07-31T14:16:05;22.30;99.90
13694;DHT22;6919;52.344;14.518;2023-07-31T14:18:33;22.40;99.90
13694;DHT22;6919;52.344;14.518;2023-07-31T14:21:02;22.40;99.90
13694;DHT22;6919;52.344;14.518;2023-07-31T14:23:31;22.40;99.90
13694;DHT22;6919;52.344;14.518;2023-07-31T14:25:59;22.40;99.90
13694;DHT22;6919;52.344;14.518;2023-07-31T14:28:30;22.30;99.90
13694;DHT22;6919;52.344;14.518;2023-07-31T14:30:58;22.10;99.90
13694;DHT22;6919;52.344;14.518;2023-07-31T14:33:27;22.20;99.90
13694;DHT22;6919;52.344;14.518;2023-07-31T14:35:56;21.90;99.90
13694;DHT22;6919;52.344;14.518;2023-07-31T14:38:24;21.80;99.90
13694;DHT22;6919;52.344;14.518;2023-07-31T14:40:52;21.70;99.90
13694;DHT22;6919;52.344;14.518;2023-07-31T14:43:21;21.70;99.90
13694;DHT22;6919;52.344;14.518;2023-07-31T14:45:51;22.20;99.90
13694;DHT22;6919;52.344;14.518;2023-07-31T14:48:20;22.80;99.90
13694;DHT22;6919;52.344;14.518;2023-07-31T14:50:48;22.90;99.90
13694;DHT22;6919;52.344;14.518;2023-07-31T14:53:17;23.00;99.90
13694;DHT22;6919;52.344;14.518;2023-07-31T14:55:45;23.20;99.90
13694;DHT22;6919;52.344;14.518;2023-07-31T14:58:13;23.00;99.90
13694;DHT22;6919;52.344;14.518;2023-07-31T15:00:44;22.60;99.90
13694;DHT22;6919;52.344;14.518;2023-07-31T15:03:13;22.60;99.90
13694;DHT22;6919;52.344;14.518;2023-07-31T15:05:42;22.60;99.90
13694;DHT22;6919;52.344;14.518;2023-07-31T15:08:10;22.80;99.90
13694;DHT22;6919;52.344;14.518;2023-07-31T15:10:39;22.70;99.90
13694;DHT22;6919;52.344;14.518;2023-07-31T15:13:07;22.30;99.90
13694;DHT22;6919;52.344;14.518;2023-07-31T15:15:35;22.20;99.90
13694;DHT22;6919;52.344;14.518;2023-07-31T15:18:04;22.60;99.90
13694;DHT22;6919;52.344;14.518;2023-07-31T15:20:34;22.80;99.90
13694;DHT22;6919;52.344;14.518;2023-07-31T15:23:03;22.60;99.90
13694;DHT22;6919;52.344;14.518;2023-07-31T15:25:31;22.50;99.90
13694;DHT22;6919;52.344;14.518;2023-07-31T15:28:00;22.20;99.90
13694;DHT22;6919;52.344;14.518;2023-07-31T15:30:29;22.50;99.90
13694;DHT22;6919;52.344;14.518;2023-07-31T15:32:58;22.70;99.90
13694;DHT22;6919;52.344;14.518;2023-07-31T15:35:27;23.10;99.90
13694;DHT22;6919;52.344;14.518;2023-07-31T15:37:57;23.00;99.90
13694;DHT22;6919;52.344;14.518;2023-07-31T15:40:25;23.30;99.90
13694;DHT22;6919;52.344;14.518;2023-07-31T15:42:54;23.40;99.90
13694;DHT22;6919;52.344;14.518;2023-07-31T15:45:22;23.50;99.90